createdAt,value
2022-09-21T00:00:44.747Z,9.87
2022-09-21T00:03:12.350Z,10.70
2022-09-21T00:05:39.781Z,9.17
2022-09-21T00:08:07.831Z,10.27
2022-09-21T00:10:35.838Z,13.90
2022-09-21T00:13:05.103Z,10.63
2022-09-21T00:15:32.834Z,8.30
2022-09-21T00:18:01.351Z,10.50
2022-09-21T00:20:29.312Z,6.90
2022-09-21T00:22:56.872Z,9.43
2022-09-21T00:25:24.552Z,8.77
2022-09-21T00:27:52.119Z,8.60
2022-09-21T00:30:21.030Z,5.77
2022-09-21T00:32:48.508Z,7.60
2022-09-21T00:35:16.043Z,6.63
2022-09-21T00:37:43.504Z,6.73
2022-09-21T00:40:11.818Z,7.20
2022-09-21T00:42:39.409Z,8.30
2022-09-21T00:45:07.681Z,10.17
2022-09-21T00:47:38.008Z,7.60
2022-09-21T00:50:07.394Z,11.00
2022-09-21T00:52:38.502Z,8.50
2022-09-21T00:55:09.830Z,8.03
2022-09-21T00:57:38.614Z,7.77
2022-09-21T01:00:08.769Z,8.73
2022-09-21T01:02:38.289Z,7.90
2022-09-21T01:05:06.726Z,7.00
2022-09-21T01:07:36.520Z,10.60
2022-09-21T01:10:06.243Z,10.43
2022-09-21T01:12:40.075Z,6.60
2022-09-21T01:15:15.544Z,9.37
2022-09-21T01:17:47.241Z,8.00
2022-09-21T01:20:26.977Z,8.20
2022-09-21T01:23:00.934Z,8.13
2022-09-21T01:25:33.205Z,8.23
2022-09-21T01:28:18.639Z,7.30
2022-09-21T01:30:49.470Z,8.30
2022-09-21T01:33:21.735Z,7.57
2022-09-21T01:35:50.589Z,8.40
2022-09-21T01:38:20.418Z,9.40
2022-09-21T01:40:50.406Z,7.60
2022-09-21T01:43:20.593Z,7.63
2022-09-21T01:45:52.231Z,9.07
2022-09-21T01:48:22.304Z,9.50
2022-09-21T01:50:53.122Z,8.43
2022-09-21T01:53:23.623Z,7.83
2022-09-21T01:55:53.205Z,7.43
2022-09-21T01:58:24.319Z,7.80
2022-09-21T02:00:56.376Z,9.43
2022-09-21T02:03:48.635Z,13.13
2022-09-21T02:06:17.855Z,7.63
2022-09-21T02:08:45.572Z,7.60
2022-09-21T02:11:13.610Z,7.07
2022-09-21T02:13:43.497Z,8.60
2022-09-21T02:16:22.067Z,7.80
2022-09-21T02:18:56.844Z,6.60
2022-09-21T02:21:26.554Z,10.27
2022-09-21T02:23:58.965Z,9.57
2022-09-21T02:26:31.568Z,8.33
2022-09-21T02:29:02.823Z,6.83
2022-09-21T02:31:37.203Z,14.20
2022-09-21T02:34:08.057Z,9.97
2022-09-21T02:36:39.235Z,10.70
2022-09-21T02:39:11.985Z,8.43
2022-09-21T02:41:41.686Z,8.07
2022-09-21T02:44:12.821Z,8.10
2022-09-21T02:46:43.380Z,9.23
2022-09-21T02:49:13.985Z,10.60
2022-09-21T02:51:43.084Z,8.70
2022-09-21T02:54:12.375Z,9.80
2022-09-21T02:56:40.163Z,7.63
2022-09-21T02:59:08.251Z,14.60
2022-09-21T03:01:36.153Z,6.70
2022-09-21T03:04:05.239Z,6.90
2022-09-21T03:06:33.527Z,7.70
2022-09-21T03:09:01.267Z,6.60
2022-09-21T03:11:29.109Z,11.70
2022-09-21T03:13:57.164Z,8.27
2022-09-21T03:16:25.347Z,7.33
2022-09-21T03:18:52.865Z,10.23
2022-09-21T03:21:22.029Z,7.50
2022-09-21T03:23:50.023Z,10.30
2022-09-21T03:26:21.438Z,11.50
2022-09-21T03:28:49.050Z,8.90
2022-09-21T03:31:17.109Z,9.50
2022-09-21T03:33:46.361Z,9.33
2022-09-21T03:36:13.830Z,9.40
2022-09-21T03:38:42.859Z,11.07
2022-09-21T03:41:10.421Z,8.20
2022-09-21T03:43:38.089Z,9.03
2022-09-21T03:46:06.005Z,10.30
2022-09-21T03:48:33.576Z,8.97
2022-09-21T03:51:01.051Z,9.00
2022-09-21T03:53:29.270Z,9.80
2022-09-21T03:55:58.407Z,10.10
2022-09-21T03:58:26.174Z,8.20
2022-09-21T04:00:54.626Z,8.10
2022-09-21T04:03:22.207Z,9.10
2022-09-21T04:05:49.749Z,13.03
2022-09-21T04:08:17.669Z,12.03
2022-09-21T04:10:45.144Z,10.37
2022-09-21T04:13:14.272Z,8.17
2022-09-21T04:15:41.928Z,7.83
2022-09-21T04:18:09.780Z,15.33
2022-09-21T04:20:37.282Z,10.50
2022-09-21T04:23:05.142Z,11.17
2022-09-21T04:25:33.562Z,10.20
2022-09-21T04:28:01.487Z,11.30
2022-09-21T04:30:33.250Z,12.93
2022-09-21T04:33:04.714Z,9.53
2022-09-21T04:35:32.893Z,8.17
2022-09-21T04:38:00.398Z,7.70
2022-09-21T04:40:28.188Z,9.30
2022-09-21T04:42:56.192Z,8.40
2022-09-21T04:45:23.962Z,11.07
2022-09-21T04:47:53.207Z,11.63
2022-09-21T04:50:20.923Z,12.20
2022-09-21T04:52:48.663Z,10.40
2022-09-21T04:55:16.836Z,10.53
2022-09-21T04:57:44.724Z,11.23
2022-09-21T05:00:12.725Z,8.07
2022-09-21T05:02:40.390Z,7.90
2022-09-21T05:05:09.808Z,11.03
2022-09-21T05:07:37.314Z,9.73
2022-09-21T05:10:04.075Z,11.90
2022-09-21T05:12:32.743Z,9.80
2022-09-21T05:15:00.532Z,8.83
2022-09-21T05:17:28.488Z,9.57
2022-09-21T05:19:56.092Z,11.40
2022-09-21T05:22:25.025Z,10.20
2022-09-21T05:24:53.208Z,9.30
2022-09-21T05:27:20.714Z,11.57
2022-09-21T05:29:48.417Z,15.90
2022-09-21T05:32:20.726Z,13.30
2022-09-21T05:34:54.261Z,12.63
2022-09-21T05:37:33.653Z,11.60
2022-09-21T05:40:01.734Z,9.97
2022-09-21T05:42:29.538Z,10.67
2022-09-21T05:44:57.482Z,11.33
2022-09-21T05:47:27.291Z,15.50
2022-09-21T05:50:01.735Z,10.30
2022-09-21T05:52:32.719Z,11.90
2022-09-21T05:55:03.877Z,8.43
2022-09-21T05:57:36.692Z,11.90
2022-09-21T06:00:09.111Z,10.17
2022-09-21T06:02:51.529Z,9.47
2022-09-21T06:05:20.017Z,11.13
2022-09-21T06:07:48.814Z,10.40
2022-09-21T06:10:16.734Z,12.97
2022-09-21T06:12:44.366Z,12.83
2022-09-21T06:15:13.753Z,15.73
2022-09-21T06:17:41.413Z,11.77
2022-09-21T06:20:09.614Z,12.60
2022-09-21T06:22:37.118Z,16.50
2022-09-21T06:25:06.527Z,12.53
2022-09-21T06:27:34.313Z,17.20
2022-09-21T06:30:01.888Z,15.20
2022-09-21T06:32:29.600Z,18.10
2022-09-21T06:34:57.338Z,14.43
2022-09-21T06:37:25.198Z,12.83
2022-09-21T06:39:52.802Z,15.00
2022-09-21T06:42:21.957Z,13.57
2022-09-21T06:44:49.451Z,15.50
2022-09-21T06:47:16.980Z,17.97
2022-09-21T06:49:45.070Z,15.90
2022-09-21T06:52:12.841Z,12.23
2022-09-21T06:54:42.274Z,20.30
2022-09-21T06:57:10.282Z,14.47
2022-09-21T06:59:39.251Z,15.30
2022-09-21T07:02:07.064Z,15.60
2022-09-21T07:04:34.620Z,17.83
2022-09-21T07:07:04.661Z,18.63
2022-09-21T07:12:20.427Z,11.87
2022-09-21T07:14:49.271Z,25.07
2022-09-21T07:17:16.998Z,14.33
2022-09-21T07:19:44.665Z,17.40
2022-09-21T07:22:12.321Z,19.80
2022-09-21T07:24:40.097Z,16.17
2022-09-21T07:27:07.811Z,15.80
2022-09-21T07:29:35.253Z,15.63
2022-09-21T07:32:05.649Z,16.13
2022-09-21T07:34:35.603Z,22.23
2022-09-21T07:37:03.198Z,15.10
2022-09-21T07:39:30.921Z,18.03
2022-09-21T07:41:59.201Z,15.90
2022-09-21T07:44:26.823Z,15.77
2022-09-21T07:46:54.487Z,20.50
2022-09-21T07:49:23.582Z,15.10
2022-09-21T07:51:51.152Z,16.17
2022-09-21T07:54:18.674Z,18.53
2022-09-21T07:57:06.583Z,20.77
2022-09-21T07:59:33.191Z,15.33
2022-09-21T08:02:01.043Z,23.10
2022-09-21T08:04:30.177Z,15.80
2022-09-21T08:06:57.720Z,17.47
2022-09-21T08:09:25.269Z,18.30
2022-09-21T08:11:53.183Z,17.70
2022-09-21T08:14:25.861Z,20.03
2022-09-21T08:16:54.469Z,15.50
2022-09-21T08:19:25.590Z,16.07
2022-09-21T08:21:57.543Z,15.27
2022-09-21T08:24:26.679Z,15.17
2022-09-21T08:26:56.149Z,14.93
2022-09-21T08:29:24.569Z,22.27
2022-09-21T08:31:52.750Z,11.87
2022-09-21T08:34:20.871Z,13.80
2022-09-21T08:36:53.000Z,19.70
2022-09-21T08:39:24.438Z,11.63
2022-09-21T08:42:01.231Z,10.13
2022-09-21T08:44:30.622Z,15.13
2022-09-21T08:47:02.508Z,18.33
2022-09-21T08:49:31.043Z,15.10
2022-09-21T08:52:00.309Z,14.37
2022-09-21T08:54:31.786Z,11.30
2022-09-21T08:57:06.496Z,16.30
2022-09-21T08:59:35.097Z,13.80
2022-09-21T09:02:09.580Z,12.27
2022-09-21T09:04:45.902Z,13.70
2022-09-21T09:07:22.486Z,14.27
2022-09-21T09:09:55.618Z,11.80
2022-09-21T09:12:30.343Z,10.77
2022-09-21T09:15:07.087Z,18.13
2022-09-21T09:17:40.965Z,16.60
2022-09-21T09:20:11.347Z,11.90
2022-09-21T09:22:41.584Z,14.30
2022-09-21T09:25:17.586Z,9.90
2022-09-21T09:27:46.403Z,24.10
2022-09-21T09:30:16.081Z,14.33
2022-09-21T09:32:48.357Z,12.90
2022-09-21T09:35:20.281Z,13.00
2022-09-21T09:37:48.677Z,16.43
2022-09-21T09:40:24.199Z,15.40
2022-09-21T09:42:54.738Z,10.10
2022-09-21T09:45:34.921Z,8.03
2022-09-21T09:48:09.042Z,9.83
2022-09-21T09:50:38.400Z,14.60
2022-09-21T09:53:07.056Z,9.90
2022-09-21T09:55:40.670Z,12.80
2022-09-21T09:58:13.031Z,13.80
2022-09-21T10:00:41.118Z,11.03
2022-09-21T10:03:16.972Z,9.40
2022-09-21T10:05:44.697Z,11.80
2022-09-21T10:08:27.094Z,16.10
2022-09-21T10:10:57.563Z,6.70
2022-09-21T10:13:27.873Z,9.00
2022-09-21T10:15:57.003Z,11.07
2022-09-21T10:18:26.027Z,8.90
2022-09-21T10:20:54.823Z,15.53
2022-09-21T10:23:22.884Z,9.13
2022-09-21T10:25:59.794Z,32.70
2022-09-21T10:28:28.297Z,8.73
2022-09-21T10:31:10.833Z,7.80
2022-09-21T10:33:47.421Z,11.37
2022-09-21T10:36:26.372Z,4.90
2022-09-21T10:38:54.058Z,3.67
2022-09-21T10:41:23.032Z,4.23
2022-09-21T10:43:51.920Z,14.83
2022-09-21T10:46:33.058Z,6.90
2022-09-21T10:49:01.220Z,4.77
2022-09-21T10:51:30.076Z,6.00
2022-09-21T10:53:58.520Z,6.70
2022-09-21T10:56:27.495Z,15.53
2022-09-21T10:59:11.019Z,5.80
2022-09-21T11:01:43.842Z,5.63
2022-09-21T11:04:13.668Z,10.33
2022-09-21T11:06:44.409Z,3.70
2022-09-21T11:09:13.804Z,5.67
2022-09-21T11:11:47.383Z,9.17
2022-09-21T11:14:19.549Z,4.70
2022-09-21T11:16:49.728Z,5.30
2022-09-21T11:19:21.746Z,7.17
2022-09-21T11:21:53.184Z,3.57
2022-09-21T11:24:24.532Z,10.17
2022-09-21T11:26:56.628Z,5.03
2022-09-21T11:32:24.168Z,6.70
2022-09-21T11:34:59.086Z,5.23
2022-09-21T11:37:33.542Z,8.20
2022-09-21T11:40:09.614Z,4.10
2022-09-21T11:42:46.242Z,5.57
2022-09-21T11:45:32.708Z,9.33
2022-09-21T11:48:05.459Z,4.80
2022-09-21T11:50:41.335Z,5.17
2022-09-21T11:53:28.089Z,9.03
2022-09-21T11:56:02.336Z,4.87
2022-09-21T11:58:34.256Z,5.20
2022-09-21T12:01:07.845Z,3.37
2022-09-21T12:03:41.597Z,5.60
2022-09-21T12:06:17.902Z,4.20
2022-09-21T12:08:57.936Z,4.30
2022-09-21T12:11:30.979Z,9.33
2022-09-21T12:14:03.071Z,7.60
2022-09-21T12:16:35.999Z,4.70
2022-09-21T12:19:06.688Z,6.07
2022-09-21T12:21:36.089Z,15.40
2022-09-21T12:24:05.464Z,5.63
2022-09-21T12:26:38.362Z,6.57
2022-09-21T12:29:11.442Z,6.63
2022-09-21T12:31:40.905Z,4.03
2022-09-21T12:34:12.243Z,4.07
2022-09-21T12:36:41.939Z,3.80
2022-09-21T12:39:13.546Z,5.63
2022-09-21T12:41:45.788Z,8.50
2022-09-21T12:44:18.386Z,5.63
2022-09-21T12:46:49.993Z,5.70
2022-09-21T12:49:22.177Z,7.03
2022-09-21T12:51:51.735Z,3.43
2022-09-21T12:54:24.490Z,5.33
2022-09-21T12:56:54.443Z,5.97
2022-09-21T12:59:31.769Z,4.30
2022-09-21T13:02:05.685Z,4.90
2022-09-21T13:04:41.896Z,5.37
2022-09-21T13:07:19.166Z,4.23
2022-09-21T13:09:47.323Z,4.40
2022-09-21T13:12:16.944Z,7.17
2022-09-21T13:14:47.631Z,6.83
2022-09-21T13:17:21.456Z,3.40
2022-09-21T13:19:57.419Z,6.70
2022-09-21T13:22:26.119Z,5.80
2022-09-21T13:25:03.138Z,6.40
2022-09-21T13:27:49.136Z,4.57
2022-09-21T13:30:29.274Z,6.30
2022-09-21T13:32:57.427Z,4.17
2022-09-21T13:35:51.721Z,4.47
2022-09-21T13:38:26.356Z,5.10
2022-09-21T13:40:58.478Z,5.40
2022-09-21T13:43:42.344Z,6.50
2022-09-21T13:46:11.638Z,8.13
2022-09-21T13:48:39.334Z,11.73
2022-09-21T13:51:10.059Z,3.87
2022-09-21T13:53:40.873Z,4.13
2022-09-21T13:56:18.320Z,7.57
2022-09-21T13:58:47.463Z,4.63
2022-09-21T14:01:42.599Z,5.67
2022-09-21T14:04:17.445Z,5.23
2022-09-21T14:06:46.007Z,4.10
2022-09-21T14:09:21.375Z,3.90
2022-09-21T14:11:54.206Z,4.67
2022-09-21T14:14:25.474Z,4.87
2022-09-21T14:16:55.915Z,3.80
2022-09-21T14:19:42.242Z,4.47
2022-09-21T14:22:28.385Z,4.33
2022-09-21T14:25:11.580Z,4.57
2022-09-21T14:27:45.459Z,7.27
2022-09-21T14:30:19.958Z,4.27
2022-09-21T14:32:51.074Z,6.30
2022-09-21T14:35:19.885Z,3.97
2022-09-21T14:37:48.561Z,5.97
2022-09-21T14:40:19.519Z,7.10
2022-09-21T14:42:49.976Z,4.47
2022-09-21T14:45:19.354Z,3.73
2022-09-21T14:47:55.519Z,3.70
2022-09-21T14:50:31.153Z,3.67
2022-09-21T14:53:08.013Z,7.70
2022-09-21T14:55:44.778Z,3.30
2022-09-21T14:58:24.998Z,3.70
2022-09-21T15:00:54.620Z,4.13
2022-09-21T15:03:45.278Z,4.30
2022-09-21T15:06:35.571Z,7.23
2022-09-21T15:09:27.599Z,5.73
2022-09-21T15:11:58.454Z,11.07
2022-09-21T15:14:29.072Z,4.93
2022-09-21T15:16:56.887Z,12.87
2022-09-21T15:19:27.221Z,10.97
2022-09-21T15:21:55.880Z,14.07
2022-09-21T15:24:25.892Z,5.60
2022-09-21T15:26:57.117Z,14.23
2022-09-21T15:29:26.058Z,17.03
2022-09-21T15:31:54.118Z,9.20
2022-09-21T15:34:22.707Z,24.27
2022-09-21T15:36:52.765Z,13.10
2022-09-21T15:39:24.695Z,9.40
2022-09-21T15:41:57.552Z,8.60
2022-09-21T15:44:33.453Z,5.00
2022-09-21T15:47:05.478Z,5.90
2022-09-21T15:49:34.660Z,7.77
2022-09-21T15:52:13.239Z,5.90
2022-09-21T15:54:43.245Z,12.60
2022-09-21T15:57:26.476Z,18.60
2022-09-21T15:59:56.349Z,8.30
2022-09-21T16:02:27.292Z,13.30
2022-09-21T16:04:57.393Z,14.37
2022-09-21T16:07:27.922Z,14.80
2022-09-21T16:09:55.852Z,7.03
2022-09-21T16:12:37.333Z,10.80
2022-09-21T16:15:24.575Z,7.57
2022-09-21T16:18:04.044Z,15.07
2022-09-21T16:20:39.451Z,8.30
2022-09-21T16:23:13.758Z,15.03
2022-09-21T16:25:46.160Z,21.77
2022-09-21T16:28:31.983Z,18.77
2022-09-21T16:31:00.522Z,18.83
2022-09-21T16:33:41.106Z,15.87
2022-09-21T16:36:26.247Z,7.73
2022-09-21T16:38:56.559Z,9.90
2022-09-21T16:41:31.243Z,28.03
2022-09-21T16:44:04.571Z,15.97
2022-09-21T16:46:32.868Z,13.80
2022-09-21T16:49:00.654Z,29.13
2022-09-21T16:51:29.013Z,14.27
2022-09-21T16:53:58.831Z,15.13
2022-09-21T16:56:29.419Z,17.97
2022-09-21T16:59:00.467Z,36.63
2022-09-21T17:01:41.108Z,41.57
2022-09-21T17:04:11.484Z,21.30
2022-09-21T17:06:41.450Z,11.20
2022-09-21T17:09:20.754Z,15.83
2022-09-21T17:11:53.819Z,31.23
2022-09-21T17:14:26.031Z,43.10
2022-09-21T17:16:55.619Z,51.40
2022-09-21T17:19:23.289Z,74.90
2022-09-21T17:21:51.122Z,113.60
2022-09-21T17:24:48.740Z,50.20
2022-09-21T17:27:15.242Z,84.80
2022-09-21T17:29:47.982Z,84.90
2022-09-21T17:32:16.404Z,109.73
2022-09-21T17:34:43.860Z,53.30
2022-09-21T17:37:11.524Z,62.57
2022-09-21T17:39:41.867Z,56.63
2022-09-21T17:42:14.585Z,87.97
2022-09-21T17:44:47.029Z,141.33
2022-09-21T17:47:19.381Z,75.37
2022-09-21T17:49:47.658Z,23.53
2022-09-21T17:52:38.129Z,60.50
2022-09-21T17:55:10.974Z,48.23
2022-09-21T17:57:45.883Z,31.07
2022-09-21T18:00:15.101Z,33.43
2022-09-21T18:02:42.834Z,15.43
2022-09-21T18:05:15.856Z,13.93
2022-09-21T18:07:43.649Z,38.20
2022-09-21T18:10:15.626Z,31.23
2022-09-21T18:12:54.434Z,20.20
2022-09-21T18:15:29.887Z,29.80
2022-09-21T18:18:02.153Z,16.90
2022-09-21T18:20:34.315Z,40.60
2022-09-21T18:23:07.249Z,37.97
2022-09-21T18:25:49.684Z,51.43
2022-09-21T18:28:23.671Z,65.53
2022-09-21T18:30:56.853Z,134.27
2022-09-21T18:33:29.654Z,112.37
2022-09-21T18:36:02.907Z,63.93
2022-09-21T18:38:33.093Z,30.03
2022-09-21T18:41:13.183Z,126.60
2022-09-21T18:44:00.574Z,87.47
2022-09-21T18:46:33.141Z,57.73
2022-09-21T18:49:03.098Z,49.13
2022-09-21T18:51:36.536Z,83.90
2022-09-21T18:54:04.570Z,43.63
2022-09-21T18:56:34.967Z,153.70
2022-09-21T18:59:04.033Z,24.60
2022-09-21T19:01:33.788Z,36.17
2022-09-21T19:04:02.267Z,17.20
2022-09-21T19:06:37.711Z,42.73
2022-09-21T19:09:08.897Z,25.23
2022-09-21T19:11:45.837Z,22.17
2022-09-21T19:14:17.378Z,37.83
2022-09-21T19:16:52.622Z,32.07
2022-09-21T19:19:27.052Z,23.57
2022-09-21T19:21:58.209Z,25.43
2022-09-21T19:24:30.565Z,39.50
2022-09-21T19:27:06.043Z,43.37
2022-09-21T19:29:38.240Z,25.50
2022-09-21T19:32:11.549Z,37.23
2022-09-21T19:34:40.140Z,42.50
2022-09-21T19:37:08.916Z,22.10
2022-09-21T19:39:37.135Z,16.53
2022-09-21T19:42:16.225Z,38.40
2022-09-21T19:44:51.433Z,33.57
2022-09-21T19:47:24.494Z,47.37
2022-09-21T19:49:54.670Z,16.87
2022-09-21T19:52:27.569Z,57.63
2022-09-21T19:55:15.458Z,22.17
2022-09-21T19:58:02.418Z,17.60
2022-09-21T20:00:32.186Z,13.70
2022-09-21T20:03:03.450Z,17.37
2022-09-21T20:05:35.065Z,14.73
2022-09-21T20:08:04.278Z,17.03
2022-09-21T20:10:42.893Z,18.40
2022-09-21T20:13:19.751Z,34.40
2022-09-21T20:15:50.061Z,20.70
2022-09-21T20:18:22.993Z,18.30
2022-09-21T20:20:51.687Z,21.47
2022-09-21T20:23:19.518Z,28.63
2022-09-21T20:26:00.803Z,20.60
2022-09-21T20:28:31.075Z,24.30
2022-09-21T20:30:58.722Z,31.73
2022-09-21T20:33:27.049Z,27.70
2022-09-21T20:35:55.965Z,23.67
2022-09-21T20:38:26.397Z,26.37
2022-09-21T20:40:53.986Z,15.93
2022-09-21T20:43:23.029Z,32.87
2022-09-21T20:45:52.856Z,59.67
2022-09-21T20:48:20.413Z,44.43
2022-09-21T20:50:49.081Z,25.20
2022-09-21T20:53:16.819Z,22.87
2022-09-21T20:55:52.823Z,28.40
2022-09-21T20:58:20.986Z,31.00
2022-09-21T21:00:48.664Z,33.67
2022-09-21T21:03:18.045Z,24.30
2022-09-21T21:05:45.973Z,18.13
2022-09-21T21:08:13.553Z,21.63
2022-09-21T21:10:46.682Z,21.17
2022-09-21T21:13:14.619Z,29.90
2022-09-21T21:15:42.133Z,19.03
2022-09-21T21:18:10.851Z,22.97
2022-09-21T21:20:40.997Z,28.27
2022-09-21T21:23:08.848Z,18.57
2022-09-21T21:25:52.687Z,63.67
2022-09-21T21:28:20.714Z,19.40
2022-09-21T21:30:56.898Z,17.60
2022-09-21T21:33:25.725Z,17.03
2022-09-21T21:35:54.516Z,13.20
2022-09-21T21:38:22.560Z,18.40
2022-09-21T21:40:55.682Z,15.47
2022-09-21T21:43:23.492Z,17.47
2022-09-21T21:45:57.651Z,35.33
2022-09-21T21:48:27.750Z,17.80
2022-09-21T21:51:01.417Z,74.97
2022-09-21T21:53:29.718Z,44.33
2022-09-21T21:56:04.568Z,22.43
2022-09-21T21:58:33.947Z,22.53
2022-09-21T22:01:10.214Z,38.97
2022-09-21T22:03:38.876Z,23.30
2022-09-21T22:06:08.239Z,32.40
2022-09-21T22:08:36.606Z,24.27
2022-09-21T22:11:04.945Z,21.63
2022-09-21T22:13:36.643Z,27.33
2022-09-21T22:16:05.843Z,15.40
2022-09-21T22:18:34.848Z,16.47
2022-09-21T22:21:03.171Z,16.33
2022-09-21T22:23:38.898Z,20.63
2022-09-21T22:26:08.300Z,19.27
2022-09-21T22:28:36.886Z,14.77
2022-09-21T22:31:10.141Z,15.70
2022-09-21T22:33:38.752Z,15.43
2022-09-21T22:36:08.168Z,14.57
2022-09-21T22:38:41.923Z,15.90
2022-09-21T22:41:12.897Z,18.00
2022-09-21T22:43:40.833Z,18.13
2022-09-21T22:46:09.608Z,12.50
2022-09-21T22:48:37.644Z,14.80
2022-09-21T22:51:06.437Z,11.40
2022-09-21T22:53:34.252Z,14.37
2022-09-21T22:56:03.808Z,10.83
2022-09-21T22:58:33.325Z,13.53
2022-09-21T23:01:05.224Z,20.73
2022-09-21T23:03:33.053Z,11.87
2022-09-21T23:06:00.648Z,12.67
2022-09-21T23:08:28.677Z,8.30
2022-09-21T23:10:56.913Z,9.70
2022-09-21T23:13:24.720Z,10.43
2022-09-21T23:15:53.700Z,11.73
2022-09-21T23:18:21.551Z,7.80
2022-09-21T23:20:56.878Z,10.20
2022-09-21T23:23:24.996Z,15.20
2022-09-21T23:26:01.409Z,13.07
2022-09-21T23:28:29.487Z,8.30
2022-09-21T23:31:00.911Z,26.93
2022-09-21T23:33:32.447Z,12.93
2022-09-21T23:36:00.476Z,22.40
2022-09-21T23:38:29.386Z,15.47
2022-09-21T23:41:04.318Z,7.80
2022-09-21T23:43:32.074Z,7.47
2022-09-21T23:46:00.963Z,14.30
2022-09-21T23:48:30.139Z,20.90
2022-09-21T23:50:57.950Z,10.70
2022-09-21T23:53:26.188Z,8.40
2022-09-21T23:55:53.962Z,10.83
2022-09-21T23:58:21.647Z,7.73
